sensor_id;sensor_type;location;lat;lon;timestamp;temperature;humidity
3919;DHT22;1974;48.670;8.994;2023-03-15T00:01:14;2.60;99.90
3919;DHT22;1974;48.670;8.994;2023-03-15T00:03:41;2.60;99.90
3919;DHT22;1974;48.670;8.994;2023-03-15T00:06:08;2.70;99.90
3919;DHT22;1974;48.670;8.994;2023-03-15T00:08:36;2.70;99.90
3919;DHT22;1974;48.670;8.994;2023-03-15T00:11:03;2.60;99.90
3919;DHT22;1974;48.670;8.994;2023-03-15T00:13:30;2.70;99.90
3919;DHT22;1974;48.670;8.994;2023-03-15T00:15:59;2.70;99.90
3919;DHT22;1974;48.670;8.994;2023-03-15T00:18:28;2.70;99.90
3919;DHT22;1974;48.670;8.994;2023-03-15T00:20:55;2.70;99.90
3919;DHT22;1974;48.670;8.994;2023-03-15T00:23:22;2.70;99.90
3919;DHT22;1974;48.670;8.994;2023-03-15T00:25:50;2.70;99.90
3919;DHT22;1974;48.670;8.994;2023-03-15T00:28:17;2.70;99.90
3919;DHT22;1974;48.670;8.994;2023-03-15T00:30:44;2.70;99.90
3919;DHT22;1974;48.670;8.994;2023-03-15T00:33:12;2.60;99.90
3919;DHT22;1974;48.670;8.994;2023-03-15T00:35:41;2.60;99.90
3919;DHT22;1974;48.670;8.994;2023-03-15T00:38:08;2.60;99.90
3919;DHT22;1974;48.670;8.994;2023-03-15T00:40:36;2.60;99.90
3919;DHT22;1974;48.670;8.994;2023-03-15T00:43:03;2.60;99.90
3919;DHT22;1974;48.670;8.994;2023-03-15T00:45:30;2.60;99.90
3919;DHT22;1974;48.670;8.994;2023-03-15T00:47:56;2.60;99.90
3919;DHT22;1974;48.670;8.994;2023-03-15T00:50:23;2.60;99.90
3919;DHT22;1974;48.670;8.994;2023-03-15T00:52:51;2.50;99.90
3919;DHT22;1974;48.670;8.994;2023-03-15T00:55:18;2.50;99.90
3919;DHT22;1974;48.670;8.994;2023-03-15T00:57:46;2.50;99.90
3919;DHT22;1974;48.670;8.994;2023-03-15T01:00:16;2.50;99.90
3919;DHT22;1974;48.670;8.994;2023-03-15T01:02:44;2.50;99.90
3919;DHT22;1974;48.670;8.994;2023-03-15T01:05:11;2.50;99.90
3919;DHT22;1974;48.670;8.994;2023-03-15T01:07:38;2.50;99.90
3919;DHT22;1974;48.670;8.994;2023-03-15T01:10:07;2.50;99.90
3919;DHT22;1974;48.670;8.994;2023-03-15T01:12:34;2.50;99.90
3919;DHT22;1974;48.670;8.994;2023-03-15T01:15:02;2.50;99.90
3919;DHT22;1974;48.670;8.994;2023-03-15T01:17:30;2.50;99.90
3919;DHT22;1974;48.670;8.994;2023-03-15T01:19:57;2.40;99.90
3919;DHT22;1974;48.670;8.994;2023-03-15T01:22:23;2.30;99.90
3919;DHT22;1974;48.670;8.994;2023-03-15T01:24:50;2.30;99.90
3919;DHT22;1974;48.670;8.994;2023-03-15T01:27:18;2.20;99.90
3919;DHT22;1974;48.670;8.994;2023-03-15T01:29:45;2.10;99.90
3919;DHT22;1974;48.670;8.994;2023-03-15T01:32:12;2.10;99.90
3919;DHT22;1974;48.670;8.994;2023-03-15T01:34:38;2.00;99.90
3919;DHT22;1974;48.670;8.994;2023-03-15T01:37:05;2.00;99.90
3919;DHT22;1974;48.670;8.994;2023-03-15T01:39:32;1.90;99.90
3919;DHT22;1974;48.670;8.994;2023-03-15T01:41:59;1.90;99.90
3919;DHT22;1974;48.670;8.994;2023-03-15T01:44:48;1.80;99.90
3919;DHT22;1974;48.670;8.994;2023-03-15T01:47:15;1.70;99.90
3919;DHT22;1974;48.670;8.994;2023-03-15T01:49:43;1.70;99.90
3919;DHT22;1974;48.670;8.994;2023-03-15T01:52:16;1.70;99.90
3919;DHT22;1974;48.670;8.994;2023-03-15T01:54:45;1.60;99.90
3919;DHT22;1974;48.670;8.994;2023-03-15T01:57:16;1.60;99.90
3919;DHT22;1974;48.670;8.994;2023-03-15T01:59:51;1.60;99.90
3919;DHT22;1974;48.670;8.994;2023-03-15T02:02:22;1.60;99.90
3919;DHT22;1974;48.670;8.994;2023-03-15T02:04:53;1.60;99.90
3919;DHT22;1974;48.670;8.994;2023-03-15T02:07:23;1.60;99.90
3919;DHT22;1974;48.670;8.994;2023-03-15T02:09:56;1.60;99.90
3919;DHT22;1974;48.670;8.994;2023-03-15T02:12:24;1.50;99.90
3919;DHT22;1974;48.670;8.994;2023-03-15T02:14:53;1.50;99.90
3919;DHT22;1974;48.670;8.994;2023-03-15T02:17:27;1.50;99.90
3919;DHT22;1974;48.670;8.994;2023-03-15T02:20:00;1.40;99.90
3919;DHT22;1974;48.670;8.994;2023-03-15T02:22:38;1.40;99.90
3919;DHT22;1974;48.670;8.994;2023-03-15T02:25:14;1.40;99.90
3919;DHT22;1974;48.670;8.994;2023-03-15T02:27:44;1.40;99.90
3919;DHT22;1974;48.670;8.994;2023-03-15T02:30:11;1.40;99.90
3919;DHT22;1974;48.670;8.994;2023-03-15T02:32:39;1.40;99.90
3919;DHT22;1974;48.670;8.994;2023-03-15T02:35:07;1.40;99.90
3919;DHT22;1974;48.670;8.994;2023-03-15T02:37:33;1.30;99.90
3919;DHT22;1974;48.670;8.994;2023-03-15T02:40:00;1.30;99.90
3919;DHT22;1974;48.670;8.994;2023-03-15T02:42:27;1.30;99.90
3919;DHT22;1974;48.670;8.994;2023-03-15T02:44:57;1.30;99.90
3919;DHT22;1974;48.670;8.994;2023-03-15T02:47:26;1.20;99.90
3919;DHT22;1974;48.670;8.994;2023-03-15T02:49:53;1.20;99.90
3919;DHT22;1974;48.670;8.994;2023-03-15T02:52:20;1.20;99.90
3919;DHT22;1974;48.670;8.994;2023-03-15T02:54:47;1.20;99.90
3919;DHT22;1974;48.670;8.994;2023-03-15T02:57:16;1.30;99.90
3919;DHT22;1974;48.670;8.994;2023-03-15T02:59:43;1.20;99.90
3919;DHT22;1974;48.670;8.994;2023-03-15T03:02:11;1.20;99.90
3919;DHT22;1974;48.670;8.994;2023-03-15T03:04:39;1.20;99.90
3919;DHT22;1974;48.670;8.994;2023-03-15T03:07:06;1.20;99.90
3919;DHT22;1974;48.670;8.994;2023-03-15T03:09:33;1.10;99.90
3919;DHT22;1974;48.670;8.994;2023-03-15T03:12:00;1.10;99.90
3919;DHT22;1974;48.670;8.994;2023-03-15T03:14:26;1.10;99.90
3919;DHT22;1974;48.670;8.994;2023-03-15T03:16:53;1.00;99.90
3919;DHT22;1974;48.670;8.994;2023-03-15T03:19:21;1.10;99.90
3919;DHT22;1974;48.670;8.994;2023-03-15T03:21:50;1.00;99.90
3919;DHT22;1974;48.670;8.994;2023-03-15T03:24:16;1.10;99.90
3919;DHT22;1974;48.670;8.994;2023-03-15T03:26:43;1.00;99.90
3919;DHT22;1974;48.670;8.994;2023-03-15T03:29:11;1.00;99.90
3919;DHT22;1974;48.670;8.994;2023-03-15T03:31:41;1.00;99.90
3919;DHT22;1974;48.670;8.994;2023-03-15T03:34:08;1.00;99.90
3919;DHT22;1974;48.670;8.994;2023-03-15T03:36:40;1.00;99.90
3919;DHT22;1974;48.670;8.994;2023-03-15T03:39:07;0.90;99.90
3919;DHT22;1974;48.670;8.994;2023-03-15T03:41:34;0.90;99.90
3919;DHT22;1974;48.670;8.994;2023-03-15T03:44:01;0.90;99.90
3919;DHT22;1974;48.670;8.994;2023-03-15T03:46:28;0.90;99.90
3919;DHT22;1974;48.670;8.994;2023-03-15T03:48:54;0.90;99.90
3919;DHT22;1974;48.670;8.994;2023-03-15T03:51:22;0.90;99.90
3919;DHT22;1974;48.670;8.994;2023-03-15T03:53:50;0.90;99.90
3919;DHT22;1974;48.670;8.994;2023-03-15T03:56:16;0.90;99.90
3919;DHT22;1974;48.670;8.994;2023-03-15T03:58:43;0.90;99.90
3919;DHT22;1974;48.670;8.994;2023-03-15T04:01:10;0.90;99.90
3919;DHT22;1974;48.670;8.994;2023-03-15T04:03:37;0.80;99.90
3919;DHT22;1974;48.670;8.994;2023-03-15T04:06:04;0.80;99.90
3919;DHT22;1974;48.670;8.994;2023-03-15T04:08:30;0.80;99.90
3919;DHT22;1974;48.670;8.994;2023-03-15T04:10:59;0.80;99.90
3919;DHT22;1974;48.670;8.994;2023-03-15T04:13:28;0.80;99.90
3919;DHT22;1974;48.670;8.994;2023-03-15T04:15:55;0.80;99.90
3919;DHT22;1974;48.670;8.994;2023-03-15T04:18:23;0.80;99.90
3919;DHT22;1974;48.670;8.994;2023-03-15T04:20:50;0.80;99.90
3919;DHT22;1974;48.670;8.994;2023-03-15T04:23:19;0.80;99.90
3919;DHT22;1974;48.670;8.994;2023-03-15T04:25:47;0.80;99.90
3919;DHT22;1974;48.670;8.994;2023-03-15T04:28:15;0.80;99.90
3919;DHT22;1974;48.670;8.994;2023-03-15T04:30:42;0.80;99.90
3919;DHT22;1974;48.670;8.994;2023-03-15T04:33:09;0.90;99.90
3919;DHT22;1974;48.670;8.994;2023-03-15T04:35:37;0.90;99.90
3919;DHT22;1974;48.670;8.994;2023-03-15T04:38:04;0.90;99.90
3919;DHT22;1974;48.670;8.994;2023-03-15T04:40:32;0.80;99.90
3919;DHT22;1974;48.670;8.994;2023-03-15T04:43:01;0.80;99.90
3919;DHT22;1974;48.670;8.994;2023-03-15T04:45:30;0.80;99.90
3919;DHT22;1974;48.670;8.994;2023-03-15T04:47:57;0.80;99.90
3919;DHT22;1974;48.670;8.994;2023-03-15T04:50:24;0.80;99.90
3919;DHT22;1974;48.670;8.994;2023-03-15T04:52:51;0.80;99.90
3919;DHT22;1974;48.670;8.994;2023-03-15T04:55:18;0.80;99.90
3919;DHT22;1974;48.670;8.994;2023-03-15T04:57:45;0.80;99.90
3919;DHT22;1974;48.670;8.994;2023-03-15T05:00:13;0.90;99.90
3919;DHT22;1974;48.670;8.994;2023-03-15T05:02:41;0.80;99.90
3919;DHT22;1974;48.670;8.994;2023-03-15T05:05:09;0.80;99.90
3919;DHT22;1974;48.670;8.994;2023-03-15T05:07:36;0.80;99.90
3919;DHT22;1974;48.670;8.994;2023-03-15T05:10:04;0.80;99.90
3919;DHT22;1974;48.670;8.994;2023-03-15T05:12:32;0.80;99.90
3919;DHT22;1974;48.670;8.994;2023-03-15T05:14:59;0.80;99.90
3919;DHT22;1974;48.670;8.994;2023-03-15T05:17:25;0.70;99.90
3919;DHT22;1974;48.670;8.994;2023-03-15T05:19:54;0.70;99.90
3919;DHT22;1974;48.670;8.994;2023-03-15T05:22:20;0.70;99.90
3919;DHT22;1974;48.670;8.994;2023-03-15T05:24:50;0.70;99.90
3919;DHT22;1974;48.670;8.994;2023-03-15T05:27:18;0.60;99.90
3919;DHT22;1974;48.670;8.994;2023-03-15T05:29:44;0.60;99.90
3919;DHT22;1974;48.670;8.994;2023-03-15T05:32:11;0.60;99.90
3919;DHT22;1974;48.670;8.994;2023-03-15T05:34:38;0.60;99.90
3919;DHT22;1974;48.670;8.994;2023-03-15T05:37:06;0.60;99.90
3919;DHT22;1974;48.670;8.994;2023-03-15T05:39:33;0.60;99.90
3919;DHT22;1974;48.670;8.994;2023-03-15T05:42:00;0.50;99.90
3919;DHT22;1974;48.670;8.994;2023-03-15T05:44:27;0.50;99.90
3919;DHT22;1974;48.670;8.994;2023-03-15T05:46:54;0.60;99.90
3919;DHT22;1974;48.670;8.994;2023-03-15T05:49:21;0.50;99.90
3919;DHT22;1974;48.670;8.994;2023-03-15T05:51:47;0.60;99.90
3919;DHT22;1974;48.670;8.994;2023-03-15T05:54:15;0.60;99.90
3919;DHT22;1974;48.670;8.994;2023-03-15T05:56:42;0.60;99.90
3919;DHT22;1974;48.670;8.994;2023-03-15T05:59:09;0.60;99.90
3919;DHT22;1974;48.670;8.994;2023-03-15T06:01:35;0.70;99.90
3919;DHT22;1974;48.670;8.994;2023-03-15T06:04:03;0.70;99.90
3919;DHT22;1974;48.670;8.994;2023-03-15T06:06:30;0.70;99.90
3919;DHT22;1974;48.670;8.994;2023-03-15T06:08:56;0.70;99.90
3919;DHT22;1974;48.670;8.994;2023-03-15T06:11:24;0.70;99.90
3919;DHT22;1974;48.670;8.994;2023-03-15T06:13:51;0.70;99.90
3919;DHT22;1974;48.670;8.994;2023-03-15T06:16:18;0.70;99.90
3919;DHT22;1974;48.670;8.994;2023-03-15T06:18:44;0.80;99.90
3919;DHT22;1974;48.670;8.994;2023-03-15T06:21:11;1.10;99.90
3919;DHT22;1974;48.670;8.994;2023-03-15T06:23:38;1.70;99.90
3919;DHT22;1974;48.670;8.994;2023-03-15T06:26:05;2.60;99.90
3919;DHT22;1974;48.670;8.994;2023-03-15T06:28:33;3.40;99.90
3919;DHT22;1974;48.670;8.994;2023-03-15T06:31:05;4.20;99.90
3919;DHT22;1974;48.670;8.994;2023-03-15T06:33:32;4.90;99.90
3919;DHT22;1974;48.670;8.994;2023-03-15T06:35:59;5.10;99.90
3919;DHT22;1974;48.670;8.994;2023-03-15T06:38:25;4.80;99.90
3919;DHT22;1974;48.670;8.994;2023-03-15T06:40:52;4.30;99.90
3919;DHT22;1974;48.670;8.994;2023-03-15T06:43:20;3.80;99.90
3919;DHT22;1974;48.670;8.994;2023-03-15T06:45:48;3.40;99.90
3919;DHT22;1974;48.670;8.994;2023-03-15T06:48:15;3.00;99.90
3919;DHT22;1974;48.670;8.994;2023-03-15T06:50:42;2.80;99.90
3919;DHT22;1974;48.670;8.994;2023-03-15T06:53:09;2.60;99.90
3919;DHT22;1974;48.670;8.994;2023-03-15T06:55:35;2.40;99.90
3919;DHT22;1974;48.670;8.994;2023-03-15T06:58:02;2.40;99.90
3919;DHT22;1974;48.670;8.994;2023-03-15T07:00:29;2.30;99.90
3919;DHT22;1974;48.670;8.994;2023-03-15T07:02:57;2.20;99.90
3919;DHT22;1974;48.670;8.994;2023-03-15T07:05:24;2.20;99.90
3919;DHT22;1974;48.670;8.994;2023-03-15T07:07:50;2.10;99.90
3919;DHT22;1974;48.670;8.994;2023-03-15T07:10:18;2.20;99.90
3919;DHT22;1974;48.670;8.994;2023-03-15T07:12:44;2.20;99.90
3919;DHT22;1974;48.670;8.994;2023-03-15T07:15:11;2.20;99.90
3919;DHT22;1974;48.670;8.994;2023-03-15T07:17:38;2.20;99.90
3919;DHT22;1974;48.670;8.994;2023-03-15T07:20:08;2.20;99.90
3919;DHT22;1974;48.670;8.994;2023-03-15T07:22:35;2.20;99.90
3919;DHT22;1974;48.670;8.994;2023-03-15T07:25:02;2.30;99.90
3919;DHT22;1974;48.670;8.994;2023-03-15T07:27:30;2.30;99.90
3919;DHT22;1974;48.670;8.994;2023-03-15T07:29:57;2.30;99.90
3919;DHT22;1974;48.670;8.994;2023-03-15T07:32:25;2.40;99.90
3919;DHT22;1974;48.670;8.994;2023-03-15T07:34:52;2.40;99.90
3919;DHT22;1974;48.670;8.994;2023-03-15T07:37:23;2.50;99.90
3919;DHT22;1974;48.670;8.994;2023-03-15T07:39:50;2.60;99.90
3919;DHT22;1974;48.670;8.994;2023-03-15T07:42:17;2.60;99.90
3919;DHT22;1974;48.670;8.994;2023-03-15T07:44:44;2.60;99.90
3919;DHT22;1974;48.670;8.994;2023-03-15T07:47:10;2.70;99.90
3919;DHT22;1974;48.670;8.994;2023-03-15T07:49:37;2.80;99.90
3919;DHT22;1974;48.670;8.994;2023-03-15T07:52:04;2.80;99.90
3919;DHT22;1974;48.670;8.994;2023-03-15T07:54:32;2.80;99.90
3919;DHT22;1974;48.670;8.994;2023-03-15T07:56:59;2.90;99.90
3919;DHT22;1974;48.670;8.994;2023-03-15T07:59:25;2.90;99.90
3919;DHT22;1974;48.670;8.994;2023-03-15T08:01:52;2.90;99.90
3919;DHT22;1974;48.670;8.994;2023-03-15T08:04:19;3.00;99.90
3919;DHT22;1974;48.670;8.994;2023-03-15T08:06:45;3.10;99.90
3919;DHT22;1974;48.670;8.994;2023-03-15T08:09:12;3.10;99.90
3919;DHT22;1974;48.670;8.994;2023-03-15T08:11:40;3.10;99.90
3919;DHT22;1974;48.670;8.994;2023-03-15T08:14:07;3.10;99.90
3919;DHT22;1974;48.670;8.994;2023-03-15T08:16:34;3.20;99.90
3919;DHT22;1974;48.670;8.994;2023-03-15T08:19:00;3.40;99.90
3919;DHT22;1974;48.670;8.994;2023-03-15T08:21:27;3.40;99.90
3919;DHT22;1974;48.670;8.994;2023-03-15T08:23:54;3.50;99.90
3919;DHT22;1974;48.670;8.994;2023-03-15T08:26:21;3.60;99.90
3919;DHT22;1974;48.670;8.994;2023-03-15T08:28:49;3.70;99.90
3919;DHT22;1974;48.670;8.994;2023-03-15T08:31:15;3.80;99.90
3919;DHT22;1974;48.670;8.994;2023-03-15T08:33:42;4.00;99.90
3919;DHT22;1974;48.670;8.994;2023-03-15T08:36:09;4.30;99.90
3919;DHT22;1974;48.670;8.994;2023-03-15T08:38:36;4.50;99.90
3919;DHT22;1974;48.670;8.994;2023-03-15T08:41:03;4.80;99.90
3919;DHT22;1974;48.670;8.994;2023-03-15T08:43:29;5.10;99.90
3919;DHT22;1974;48.670;8.994;2023-03-15T08:45:58;5.30;99.90
3919;DHT22;1974;48.670;8.994;2023-03-15T08:48:24;5.60;99.90
3919;DHT22;1974;48.670;8.994;2023-03-15T08:50:51;5.60;99.90
3919;DHT22;1974;48.670;8.994;2023-03-15T08:53:18;5.70;99.90
3919;DHT22;1974;48.670;8.994;2023-03-15T08:55:46;6.00;99.90
3919;DHT22;1974;48.670;8.994;2023-03-15T08:58:13;6.40;99.90
3919;DHT22;1974;48.670;8.994;2023-03-15T09:00:40;6.60;99.90
3919;DHT22;1974;48.670;8.994;2023-03-15T09:03:08;6.50;99.90
3919;DHT22;1974;48.670;8.994;2023-03-15T09:05:35;6.60;99.90
3919;DHT22;1974;48.670;8.994;2023-03-15T09:08:03;6.80;99.90
3919;DHT22;1974;48.670;8.994;2023-03-15T09:10:30;7.20;99.90
3919;DHT22;1974;48.670;8.994;2023-03-15T09:12:56;7.60;99.90
3919;DHT22;1974;48.670;8.994;2023-03-15T09:15:23;8.30;99.90
3919;DHT22;1974;48.670;8.994;2023-03-15T09:17:50;8.80;99.90
3919;DHT22;1974;48.670;8.994;2023-03-15T09:20:19;8.90;99.90
3919;DHT22;1974;48.670;8.994;2023-03-15T09:22:50;9.00;99.90
3919;DHT22;1974;48.670;8.994;2023-03-15T09:25:17;8.90;99.90
3919;DHT22;1974;48.670;8.994;2023-03-15T09:27:44;8.90;99.90
3919;DHT22;1974;48.670;8.994;2023-03-15T09:30:12;8.90;99.90
3919;DHT22;1974;48.670;8.994;2023-03-15T09:32:39;8.90;99.90
3919;DHT22;1974;48.670;8.994;2023-03-15T09:35:09;9.00;99.90
3919;DHT22;1974;48.670;8.994;2023-03-15T09:37:39;9.40;99.90
3919;DHT22;1974;48.670;8.994;2023-03-15T09:40:14;9.90;99.90
3919;DHT22;1974;48.670;8.994;2023-03-15T09:42:53;10.30;99.90
3919;DHT22;1974;48.670;8.994;2023-03-15T09:45:26;10.10;99.90
3919;DHT22;1974;48.670;8.994;2023-03-15T09:47:59;9.50;99.90
3919;DHT22;1974;48.670;8.994;2023-03-15T09:50:32;9.20;99.90
3919;DHT22;1974;48.670;8.994;2023-03-15T09:53:03;8.60;99.90
3919;DHT22;1974;48.670;8.994;2023-03-15T09:55:31;8.30;99.90
3919;DHT22;1974;48.670;8.994;2023-03-15T09:58:00;8.00;99.90
3919;DHT22;1974;48.670;8.994;2023-03-15T10:00:36;8.00;99.90
3919;DHT22;1974;48.670;8.994;2023-03-15T10:03:04;9.00;99.90
3919;DHT22;1974;48.670;8.994;2023-03-15T10:05:38;10.80;99.90
3919;DHT22;1974;48.670;8.994;2023-03-15T10:08:13;12.20;99.90
3919;DHT22;1974;48.670;8.994;2023-03-15T10:10:48;13.20;99.90
3919;DHT22;1974;48.670;8.994;2023-03-15T10:13:28;13.70;95.90
3919;DHT22;1974;48.670;8.994;2023-03-15T10:16:02;13.30;94.10
3919;DHT22;1974;48.670;8.994;2023-03-15T10:18:49;13.20;95.60
3919;DHT22;1974;48.670;8.994;2023-03-15T10:21:26;12.90;93.50
3919;DHT22;1974;48.670;8.994;2023-03-15T10:23:59;12.90;93.50
3919;DHT22;1974;48.670;8.994;2023-03-15T10:26:32;13.00;91.50
3919;DHT22;1974;48.670;8.994;2023-03-15T10:29:02;13.70;91.50
3919;DHT22;1974;48.670;8.994;2023-03-15T10:31:37;14.50;91.10
3919;DHT22;1974;48.670;8.994;2023-03-15T10:34:05;15.10;86.40
3919;DHT22;1974;48.670;8.994;2023-03-15T10:36:31;15.70;84.50
3919;DHT22;1974;48.670;8.994;2023-03-15T10:39:00;16.00;79.30
3919;DHT22;1974;48.670;8.994;2023-03-15T10:41:28;15.70;79.40
3919;DHT22;1974;48.670;8.994;2023-03-15T10:43:58;15.10;81.20
3919;DHT22;1974;48.670;8.994;2023-03-15T10:46:26;14.20;81.50
3919;DHT22;1974;48.670;8.994;2023-03-15T10:48:56;13.90;81.70
3919;DHT22;1974;48.670;8.994;2023-03-15T10:51:25;14.00;76.20
3919;DHT22;1974;48.670;8.994;2023-03-15T10:53:57;14.30;80.30
3919;DHT22;1974;48.670;8.994;2023-03-15T10:56:28;14.30;78.70
3919;DHT22;1974;48.670;8.994;2023-03-15T10:58:57;14.40;79.00
3919;DHT22;1974;48.670;8.994;2023-03-15T11:01:25;14.30;78.20
3919;DHT22;1974;48.670;8.994;2023-03-15T11:04:01;14.20;76.80
3919;DHT22;1974;48.670;8.994;2023-03-15T11:06:40;14.70;77.50
3919;DHT22;1974;48.670;8.994;2023-03-15T11:09:09;15.20;74.40
3919;DHT22;1974;48.670;8.994;2023-03-15T11:11:51;15.10;72.70
3919;DHT22;1974;48.670;8.994;2023-03-15T11:14:18;14.20;71.90
3919;DHT22;1974;48.670;8.994;2023-03-15T11:16:47;13.50;74.90
3919;DHT22;1974;48.670;8.994;2023-03-15T11:19:16;12.90;72.10
3919;DHT22;1974;48.670;8.994;2023-03-15T11:21:44;12.50;75.00
3919;DHT22;1974;48.670;8.994;2023-03-15T11:24:23;11.90;74.70
3919;DHT22;1974;48.670;8.994;2023-03-15T11:26:53;11.50;77.70
3919;DHT22;1974;48.670;8.994;2023-03-15T11:29:24;11.20;78.00
3919;DHT22;1974;48.670;8.994;2023-03-15T11:31:53;11.00;79.60
3919;DHT22;1974;48.670;8.994;2023-03-15T11:34:37;10.80;82.20
3919;DHT22;1974;48.670;8.994;2023-03-15T11:37:13;10.60;82.00
3919;DHT22;1974;48.670;8.994;2023-03-15T11:39:44;10.40;81.90
3919;DHT22;1974;48.670;8.994;2023-03-15T11:42:19;10.30;82.20
3919;DHT22;1974;48.670;8.994;2023-03-15T11:44:49;10.00;83.30
3919;DHT22;1974;48.670;8.994;2023-03-15T11:47:25;10.00;83.40
3919;DHT22;1974;48.670;8.994;2023-03-15T11:49:55;9.80;86.00
3919;DHT22;1974;48.670;8.994;2023-03-15T11:52:24;9.50;86.10
3919;DHT22;1974;48.670;8.994;2023-03-15T11:54:54;9.40;88.00
3919;DHT22;1974;48.670;8.994;2023-03-15T11:57:40;9.40;85.00
3919;DHT22;1974;48.670;8.994;2023-03-15T12:00:46;9.40;87.60
3919;DHT22;1974;48.670;8.994;2023-03-15T12:03:29;9.50;87.50
3919;DHT22;1974;48.670;8.994;2023-03-15T12:06:35;9.60;85.30
3919;DHT22;1974;48.670;8.994;2023-03-15T12:08:59;9.80;84.20
3919;DHT22;1974;48.670;8.994;2023-03-15T12:11:39;10.10;82.50
3919;DHT22;1974;48.670;8.994;2023-03-15T12:14:24;10.30;82.50
3919;DHT22;1974;48.670;8.994;2023-03-15T12:19:37;10.40;82.60
3919;DHT22;1974;48.670;8.994;2023-03-15T12:22:13;10.40;82.60
3919;DHT22;1974;48.670;8.994;2023-03-15T12:24:44;10.30;80.30
3919;DHT22;1974;48.670;8.994;2023-03-15T12:27:15;10.30;81.60
3919;DHT22;1974;48.670;8.994;2023-03-15T12:29:44;10.30;81.60
3919;DHT22;1974;48.670;8.994;2023-03-15T12:32:13;10.30;80.40
3919;DHT22;1974;48.670;8.994;2023-03-15T12:34:46;10.30;80.20
3919;DHT22;1974;48.670;8.994;2023-03-15T12:37:16;10.30;83.60
3919;DHT22;1974;48.670;8.994;2023-03-15T12:39:47;10.30;84.00
3919;DHT22;1974;48.670;8.994;2023-03-15T12:45:39;10.60;81.30
3919;DHT22;1974;48.670;8.994;2023-03-15T12:48:23;10.90;83.50
3919;DHT22;1974;48.670;8.994;2023-03-15T12:50:53;11.00;83.20
3919;DHT22;1974;48.670;8.994;2023-03-15T12:53:22;11.10;85.00
3919;DHT22;1974;48.670;8.994;2023-03-15T12:55:54;11.00;85.80
3919;DHT22;1974;48.670;8.994;2023-03-15T12:58:26;10.80;83.90
3919;DHT22;1974;48.670;8.994;2023-03-15T13:00:55;10.60;82.50
3919;DHT22;1974;48.670;8.994;2023-03-15T13:03:24;10.50;83.10
3919;DHT22;1974;48.670;8.994;2023-03-15T13:05:57;10.50;84.80
3919;DHT22;1974;48.670;8.994;2023-03-15T13:08:29;10.40;84.90
3919;DHT22;1974;48.670;8.994;2023-03-15T13:11:07;10.20;84.10
3919;DHT22;1974;48.670;8.994;2023-03-15T13:13:59;9.90;83.90
3919;DHT22;1974;48.670;8.994;2023-03-15T13:16:35;9.60;85.80
3919;DHT22;1974;48.670;8.994;2023-03-15T13:19:17;9.40;87.50
3919;DHT22;1974;48.670;8.994;2023-03-15T13:21:59;9.40;88.60
3919;DHT22;1974;48.670;8.994;2023-03-15T13:24:34;9.60;89.50
3919;DHT22;1974;48.670;8.994;2023-03-15T13:27:09;9.80;86.60
3919;DHT22;1974;48.670;8.994;2023-03-15T13:29:38;9.90;87.10
3919;DHT22;1974;48.670;8.994;2023-03-15T13:32:12;9.90;87.70
3919;DHT22;1974;48.670;8.994;2023-03-15T13:34:40;9.90;89.90
3919;DHT22;1974;48.670;8.994;2023-03-15T13:37:12;9.80;90.40
3919;DHT22;1974;48.670;8.994;2023-03-15T13:39:52;9.60;90.10
3919;DHT22;1974;48.670;8.994;2023-03-15T13:42:22;9.50;90.80
3919;DHT22;1974;48.670;8.994;2023-03-15T13:45:10;9.30;90.60
3919;DHT22;1974;48.670;8.994;2023-03-15T13:47:39;9.20;90.40
3919;DHT22;1974;48.670;8.994;2023-03-15T13:50:11;9.10;90.60
3919;DHT22;1974;48.670;8.994;2023-03-15T13:52:40;9.00;91.40
3919;DHT22;1974;48.670;8.994;2023-03-15T13:55:11;8.80;94.40
3919;DHT22;1974;48.670;8.994;2023-03-15T13:57:39;8.70;95.40
3919;DHT22;1974;48.670;8.994;2023-03-15T14:00:09;8.60;98.10
3919;DHT22;1974;48.670;8.994;2023-03-15T14:02:43;8.50;99.90
3919;DHT22;1974;48.670;8.994;2023-03-15T14:05:13;8.20;99.90
3919;DHT22;1974;48.670;8.994;2023-03-15T14:07:42;8.10;99.90
3919;DHT22;1974;48.670;8.994;2023-03-15T14:10:22;8.00;99.90
3919;DHT22;1974;48.670;8.994;2023-03-15T14:12:52;7.90;99.90
3919;DHT22;1974;48.670;8.994;2023-03-15T14:15:21;7.90;99.90
3919;DHT22;1974;48.670;8.994;2023-03-15T14:17:57;7.80;99.90
3919;DHT22;1974;48.670;8.994;2023-03-15T14:20:28;7.60;99.90
3919;DHT22;1974;48.670;8.994;2023-03-15T14:22:59;7.50;99.90
3919;DHT22;1974;48.670;8.994;2023-03-15T14:25:27;7.40;99.90
3919;DHT22;1974;48.670;8.994;2023-03-15T14:28:00;7.40;99.90
3919;DHT22;1974;48.670;8.994;2023-03-15T14:30:28;7.30;99.90
3919;DHT22;1974;48.670;8.994;2023-03-15T14:32:58;7.20;99.90
3919;DHT22;1974;48.670;8.994;2023-03-15T14:35:30;7.20;99.90
3919;DHT22;1974;48.670;8.994;2023-03-15T14:38:02;7.30;99.90
3919;DHT22;1974;48.670;8.994;2023-03-15T14:40:32;7.40;99.90
3919;DHT22;1974;48.670;8.994;2023-03-15T14:43:02;7.40;99.90
3919;DHT22;1974;48.670;8.994;2023-03-15T14:45:30;7.50;99.90
3919;DHT22;1974;48.670;8.994;2023-03-15T14:47:59;7.50;99.90
3919;DHT22;1974;48.670;8.994;2023-03-15T14:50:32;7.50;99.90
3919;DHT22;1974;48.670;8.994;2023-03-15T14:53:01;7.50;99.90
3919;DHT22;1974;48.670;8.994;2023-03-15T14:55:30;7.50;99.90
3919;DHT22;1974;48.670;8.994;2023-03-15T14:58:01;7.40;99.90
3919;DHT22;1974;48.670;8.994;2023-03-15T15:00:27;7.40;99.90
3919;DHT22;1974;48.670;8.994;2023-03-15T15:02:55;7.40;99.90
3919;DHT22;1974;48.670;8.994;2023-03-15T15:05:24;7.30;99.90
3919;DHT22;1974;48.670;8.994;2023-03-15T15:07:52;7.20;99.90
3919;DHT22;1974;48.670;8.994;2023-03-15T15:10:22;7.20;99.90
3919;DHT22;1974;48.670;8.994;2023-03-15T15:12:49;7.00;99.90
3919;DHT22;1974;48.670;8.994;2023-03-15T15:15:20;6.80;99.90
3919;DHT22;1974;48.670;8.994;2023-03-15T15:17:47;6.50;99.90
3919;DHT22;1974;48.670;8.994;2023-03-15T15:20:15;6.30;99.90
3919;DHT22;1974;48.670;8.994;2023-03-15T15:22:42;6.10;99.90
3919;DHT22;1974;48.670;8.994;2023-03-15T15:25:14;6.00;99.90
3919;DHT22;1974;48.670;8.994;2023-03-15T15:27:41;5.90;99.90
3919;DHT22;1974;48.670;8.994;2023-03-15T15:30:14;6.00;99.90
3919;DHT22;1974;48.670;8.994;2023-03-15T15:32:43;6.00;99.90
3919;DHT22;1974;48.670;8.994;2023-03-15T15:35:11;6.00;99.90
3919;DHT22;1974;48.670;8.994;2023-03-15T15:37:38;5.90;99.90
3919;DHT22;1974;48.670;8.994;2023-03-15T15:40:07;5.90;99.90
3919;DHT22;1974;48.670;8.994;2023-03-15T15:42:36;5.80;99.90
3919;DHT22;1974;48.670;8.994;2023-03-15T15:45:09;5.80;99.90
3919;DHT22;1974;48.670;8.994;2023-03-15T15:47:36;5.80;99.90
3919;DHT22;1974;48.670;8.994;2023-03-15T15:50:05;5.90;99.90
3919;DHT22;1974;48.670;8.994;2023-03-15T15:52:32;5.80;99.90
3919;DHT22;1974;48.670;8.994;2023-03-15T15:54:59;5.90;99.90
3919;DHT22;1974;48.670;8.994;2023-03-15T15:57:27;5.90;99.90
3919;DHT22;1974;48.670;8.994;2023-03-15T15:59:53;6.00;99.90
3919;DHT22;1974;48.670;8.994;2023-03-15T16:02:20;6.00;99.90
3919;DHT22;1974;48.670;8.994;2023-03-15T16:04:48;6.10;99.90
3919;DHT22;1974;48.670;8.994;2023-03-15T16:07:16;6.10;99.90
3919;DHT22;1974;48.670;8.994;2023-03-15T16:09:44;6.10;99.90
3919;DHT22;1974;48.670;8.994;2023-03-15T16:12:14;6.10;99.90
3919;DHT22;1974;48.670;8.994;2023-03-15T16:14:42;6.10;99.90
3919;DHT22;1974;48.670;8.994;2023-03-15T16:17:10;6.10;99.90
3919;DHT22;1974;48.670;8.994;2023-03-15T16:19:37;6.10;99.90
3919;DHT22;1974;48.670;8.994;2023-03-15T16:22:04;6.00;99.90
3919;DHT22;1974;48.670;8.994;2023-03-15T16:24:34;6.00;99.90
3919;DHT22;1974;48.670;8.994;2023-03-15T16:27:05;6.00;99.90
3919;DHT22;1974;48.670;8.994;2023-03-15T16:29:36;6.00;99.90
3919;DHT22;1974;48.670;8.994;2023-03-15T16:32:03;6.00;99.90
3919;DHT22;1974;48.670;8.994;2023-03-15T16:34:30;5.90;99.90